Terminal Aerodrome Forecast
Issued by NWS

Home | Current Version | Previous Version | Text Only | Print | Product List | Glossary On
Versions: 1 2 3 4 5 6 7 8 9 10 11 12 13
201
FTUS41 KPHI 231720
TAFPNE
TAF
KPNE 231720Z 2318/2418 VRB04KT P6SM SKC
     FM240600 18004KT P6SM BKN250 PROB30 2414/2417 4SM -RA OVC050=

USA.gov is the U.S. government's official web portal to all federal, state and local government web resources and services.